createdAt,value
2023-05-26T00:00:32.393Z,1
2023-05-26T00:02:16.094Z,0
2023-05-26T00:03:59.807Z,0
2023-05-26T00:05:43.500Z,0
2023-05-26T00:07:27.201Z,0
2023-05-26T00:09:10.910Z,0
2023-05-26T00:10:54.634Z,0
2023-05-26T00:12:38.348Z,0
2023-05-26T00:14:22.010Z,0
2023-05-26T00:16:05.724Z,0
2023-05-26T00:17:49.419Z,0
2023-05-26T00:19:33.138Z,1
2023-05-26T00:21:16.820Z,0
2023-05-26T00:23:00.523Z,0
2023-05-26T00:24:44.240Z,0
2023-05-26T00:26:27.927Z,0
2023-05-26T00:28:11.615Z,0
2023-05-26T00:29:55.331Z,0
2023-05-26T00:31:39.030Z,0
2023-05-26T00:33:22.723Z,0
2023-05-26T00:35:06.423Z,0
2023-05-26T00:36:50.135Z,0
2023-05-26T00:38:33.832Z,0
2023-05-26T00:40:17.558Z,0
2023-05-26T00:42:01.259Z,0
2023-05-26T00:43:44.976Z,0
2023-05-26T00:45:28.623Z,0
2023-05-26T00:47:12.345Z,0
2023-05-26T00:48:56.038Z,0
2023-05-26T00:50:39.743Z,0
2023-05-26T00:52:23.447Z,0
2023-05-26T00:54:07.147Z,0
2023-05-26T00:55:50.842Z,0
2023-05-26T00:57:34.540Z,0
2023-05-26T00:59:18.253Z,0
2023-05-26T01:01:01.982Z,0
2023-05-26T01:02:45.666Z,0
2023-05-26T01:04:29.374Z,0
2023-05-26T01:06:13.067Z,0
2023-05-26T01:07:56.762Z,0
2023-05-26T01:09:40.460Z,0
2023-05-26T01:11:24.172Z,0
2023-05-26T01:13:07.867Z,0
2023-05-26T01:14:51.576Z,0
2023-05-26T01:16:35.303Z,1
2023-05-26T01:18:18.987Z,0
2023-05-26T01:20:02.677Z,0
2023-05-26T01:21:46.396Z,0
2023-05-26T01:23:30.093Z,0
2023-05-26T01:25:13.803Z,0
2023-05-26T01:26:57.498Z,1
2023-05-26T01:28:41.188Z,0
2023-05-26T01:30:24.900Z,0
2023-05-26T01:32:08.605Z,1
2023-05-26T01:33:52.294Z,0
2023-05-26T01:35:35.999Z,0
2023-05-26T01:37:19.698Z,0
2023-05-26T01:39:03.416Z,0
2023-05-26T01:40:47.111Z,1
2023-05-26T01:42:30.810Z,0
2023-05-26T01:44:14.513Z,0
2023-05-26T01:45:58.224Z,1
2023-05-26T01:47:41.919Z,0
2023-05-26T01:49:25.620Z,0
2023-05-26T01:51:09.330Z,0
2023-05-26T01:52:53.028Z,0
2023-05-26T01:54:36.725Z,0
2023-05-26T01:56:20.414Z,0
2023-05-26T01:58:04.123Z,0
2023-05-26T01:59:47.829Z,0
2023-05-26T02:01:31.546Z,0
2023-05-26T02:03:15.254Z,0
2023-05-26T02:04:58.932Z,0
2023-05-26T02:06:42.650Z,0
2023-05-26T02:10:10.058Z,0
2023-05-26T02:11:53.736Z,0
2023-05-26T02:13:37.436Z,0
2023-05-26T02:17:04.852Z,0
2023-05-26T02:18:48.567Z,0
2023-05-26T02:20:32.266Z,0
2023-05-26T02:22:15.952Z,0
2023-05-26T02:23:59.649Z,0
2023-05-26T02:25:43.338Z,0
2023-05-26T02:27:27.080Z,0
2023-05-26T02:29:10.789Z,0
2023-05-26T02:30:54.460Z,0
2023-05-26T02:32:38.175Z,0
2023-05-26T02:34:21.908Z,0
2023-05-26T02:36:05.571Z,0
2023-05-26T02:37:49.267Z,0
2023-05-26T02:39:32.984Z,0
2023-05-26T02:41:16.675Z,0
2023-05-26T02:43:00.364Z,0
2023-05-26T02:44:44.110Z,0
2023-05-26T02:46:27.773Z,0
2023-05-26T02:48:11.476Z,0
2023-05-26T02:49:55.177Z,0
2023-05-26T02:51:38.892Z,0
2023-05-26T02:53:22.587Z,0
2023-05-26T02:55:06.286Z,0
2023-05-26T02:56:50.001Z,0
2023-05-26T02:58:33.698Z,0
2023-05-26T03:00:17.409Z,0
2023-05-26T03:02:01.112Z,1
2023-05-26T03:03:44.793Z,0
2023-05-26T03:05:28.532Z,0
2023-05-26T03:07:12.227Z,0
2023-05-26T03:08:55.918Z,1
2023-05-26T03:10:39.601Z,1
2023-05-26T03:12:23.309Z,0
2023-05-26T03:14:07.026Z,1
2023-05-26T03:15:50.714Z,1
2023-05-26T03:17:34.413Z,1
2023-05-26T03:19:18.137Z,2
2023-05-26T03:21:01.826Z,2
2023-05-26T03:22:45.530Z,2
2023-05-26T03:24:29.222Z,3
2023-05-26T03:26:12.925Z,3
2023-05-26T03:27:56.630Z,4
2023-05-26T03:29:40.332Z,4
2023-05-26T03:31:24.056Z,5
2023-05-26T03:33:07.727Z,5
2023-05-26T03:34:51.466Z,6
2023-05-26T03:36:35.138Z,7
2023-05-26T03:38:18.851Z,8
2023-05-26T03:40:02.525Z,8
2023-05-26T03:41:46.227Z,9
2023-05-26T03:43:29.931Z,9
2023-05-26T03:45:13.638Z,10
2023-05-26T03:46:57.339Z,11
2023-05-26T03:48:41.065Z,12
2023-05-26T03:50:24.764Z,12
2023-05-26T03:52:08.456Z,13
2023-05-26T03:53:52.145Z,14
2023-05-26T03:55:35.847Z,15
2023-05-26T03:57:19.550Z,15
2023-05-26T03:59:03.269Z,16
2023-05-26T04:00:46.956Z,18
2023-05-26T04:02:30.672Z,21
2023-05-26T04:04:14.360Z,21
2023-05-26T04:05:58.091Z,24
2023-05-26T04:07:41.764Z,26
2023-05-26T04:09:25.439Z,28
2023-05-26T04:11:09.166Z,30
2023-05-26T04:12:52.861Z,34
2023-05-26T04:14:36.588Z,38
2023-05-26T04:16:20.278Z,42
2023-05-26T04:18:03.986Z,46
2023-05-26T04:19:47.681Z,51
2023-05-26T04:21:31.381Z,57
2023-05-26T04:23:15.095Z,63
2023-05-26T04:24:58.781Z,65
2023-05-26T04:26:42.495Z,72
2023-05-26T04:28:26.249Z,76
2023-05-26T04:31:53.586Z,85
2023-05-26T04:33:37.302Z,88
2023-05-26T04:35:21.002Z,88
2023-05-26T04:37:04.707Z,93
2023-05-26T04:38:48.442Z,95
2023-05-26T04:40:32.107Z,98
2023-05-26T04:42:15.807Z,101
2023-05-26T04:43:59.505Z,100
2023-05-26T04:45:43.216Z,101
2023-05-26T04:49:10.646Z,106
2023-05-26T04:50:54.319Z,106
2023-05-26T04:52:38.029Z,108
2023-05-26T04:54:21.707Z,109
2023-05-26T04:56:05.408Z,111
2023-05-26T04:57:49.124Z,114
2023-05-26T04:59:32.842Z,116
2023-05-26T05:01:16.541Z,119
2023-05-26T05:03:00.258Z,119
2023-05-26T05:04:43.929Z,121
2023-05-26T05:06:27.633Z,122
2023-05-26T05:08:11.341Z,121
2023-05-26T05:09:55.123Z,125
2023-05-26T05:11:38.737Z,125
2023-05-26T05:13:22.443Z,126
2023-05-26T05:15:06.312Z,128
2023-05-26T05:16:49.875Z,130
2023-05-26T05:18:33.605Z,130
2023-05-26T05:22:00.961Z,133
2023-05-26T05:23:44.653Z,137
2023-05-26T05:25:28.347Z,137
2023-05-26T05:27:12.063Z,136
2023-05-26T05:28:55.817Z,138
2023-05-26T05:30:39.532Z,138
2023-05-26T05:32:23.166Z,141
2023-05-26T05:34:06.857Z,142
2023-05-26T05:35:50.613Z,143
2023-05-26T05:37:34.351Z,146
2023-05-26T05:39:17.970Z,148
2023-05-26T05:41:01.654Z,150
2023-05-26T05:42:45.505Z,152
2023-05-26T05:44:29.255Z,156
2023-05-26T05:46:12.997Z,161
2023-05-26T05:47:56.475Z,165
2023-05-26T05:49:40.269Z,167
2023-05-26T05:51:24.058Z,170
2023-05-26T05:53:07.563Z,176
2023-05-26T05:54:51.308Z,182
2023-05-26T05:56:35.165Z,188
2023-05-26T05:58:18.697Z,193
2023-05-26T06:00:02.360Z,199
2023-05-26T06:01:46.153Z,204
2023-05-26T06:03:29.789Z,212
2023-05-26T06:05:13.518Z,776
2023-05-26T06:06:57.251Z,776
2023-05-26T06:08:40.901Z,776
2023-05-26T06:10:24.609Z,777
2023-05-26T06:12:08.306Z,777
2023-05-26T06:13:52.006Z,777
2023-05-26T06:15:35.776Z,777
2023-05-26T06:17:19.478Z,777
2023-05-26T06:19:03.238Z,778
2023-05-26T06:20:46.838Z,776
2023-05-26T06:22:30.627Z,778
2023-05-26T06:24:14.216Z,778
2023-05-26T06:25:57.943Z,779
2023-05-26T06:27:41.643Z,777
2023-05-26T06:29:25.318Z,778
2023-05-26T06:31:09.107Z,778
2023-05-26T06:32:52.741Z,778
2023-05-26T06:34:36.506Z,779
2023-05-26T06:36:20.155Z,779
2023-05-26T06:38:03.824Z,778
2023-05-26T06:39:47.539Z,779
2023-05-26T06:41:31.242Z,779
2023-05-26T06:43:14.927Z,779
2023-05-26T06:44:58.642Z,780
2023-05-26T06:46:42.363Z,780
2023-05-26T06:48:26.053Z,778
2023-05-26T06:50:09.931Z,780
2023-05-26T06:51:53.545Z,780
2023-05-26T06:53:37.292Z,780
2023-05-26T06:55:20.888Z,780
2023-05-26T06:57:04.582Z,781
2023-05-26T06:58:48.303Z,781
2023-05-26T07:00:32.019Z,781
2023-05-26T07:02:15.782Z,782
2023-05-26T07:03:59.477Z,781
2023-05-26T07:05:43.144Z,783
2023-05-26T07:07:26.933Z,782
2023-05-26T07:09:10.463Z,782
2023-05-26T07:10:54.218Z,783
2023-05-26T07:12:38.003Z,782
2023-05-26T07:14:21.613Z,780
2023-05-26T07:16:05.337Z,782
2023-05-26T07:17:49.132Z,783
2023-05-26T07:19:32.717Z,782
2023-05-26T07:21:16.504Z,783
2023-05-26T07:23:00.202Z,783
2023-05-26T07:24:43.806Z,783
2023-05-26T07:26:27.511Z,783
2023-05-26T07:28:11.479Z,783
2023-05-26T07:29:54.925Z,783
2023-05-26T07:31:38.692Z,784
2023-05-26T07:35:06.063Z,783
2023-05-26T07:36:49.821Z,784
2023-05-26T07:38:33.452Z,785
2023-05-26T07:40:17.131Z,784
2023-05-26T07:42:00.932Z,784
2023-05-26T07:43:44.567Z,784
2023-05-26T07:45:28.234Z,785
2023-05-26T07:47:11.974Z,785
2023-05-26T07:48:55.638Z,784
2023-05-26T07:50:39.430Z,784
2023-05-26T07:52:23.084Z,783
2023-05-26T07:54:06.749Z,784
2023-05-26T07:55:50.592Z,784
2023-05-26T07:57:34.241Z,784
2023-05-26T07:59:17.918Z,784
2023-05-26T08:01:01.639Z,784
2023-05-26T08:02:45.320Z,784
2023-05-26T08:04:29.046Z,783
2023-05-26T08:06:12.709Z,783
2023-05-26T08:07:56.471Z,784
2023-05-26T08:09:40.065Z,785
2023-05-26T08:11:23.970Z,785
2023-05-26T08:13:07.507Z,785
2023-05-26T08:14:57.609Z,785
2023-05-26T08:16:34.888Z,785
2023-05-26T08:18:18.600Z,784
2023-05-26T08:20:02.271Z,785
2023-05-26T08:21:46.005Z,785
2023-05-26T08:23:29.784Z,785
2023-05-26T08:25:13.419Z,785
2023-05-26T08:26:57.162Z,785
2023-05-26T08:28:40.821Z,785
2023-05-26T08:30:24.522Z,784
2023-05-26T08:32:08.191Z,785
2023-05-26T08:33:52.047Z,785
2023-05-26T08:35:35.607Z,785
2023-05-26T08:37:19.349Z,783
2023-05-26T08:39:03.002Z,785
2023-05-26T08:40:46.842Z,785
2023-05-26T08:42:30.414Z,785
2023-05-26T08:44:14.147Z,784
2023-05-26T08:45:57.862Z,784
2023-05-26T08:49:25.239Z,785
2023-05-26T08:51:09.032Z,785
2023-05-26T08:52:52.769Z,785
2023-05-26T08:54:36.331Z,785
2023-05-26T08:56:20.191Z,784
2023-05-26T08:58:03.736Z,785
2023-05-26T08:59:47.447Z,784
2023-05-26T09:01:31.343Z,785
2023-05-26T09:03:15.152Z,785
2023-05-26T09:04:58.804Z,784
2023-05-26T09:06:42.249Z,784
2023-05-26T09:08:26.082Z,783
2023-05-26T09:10:09.838Z,782
2023-05-26T09:11:53.527Z,784
2023-05-26T09:13:37.225Z,784
2023-05-26T09:15:20.794Z,783
2023-05-26T09:17:04.613Z,781
2023-05-26T09:18:48.332Z,784
2023-05-26T09:20:31.992Z,783
2023-05-26T09:22:15.736Z,784
2023-05-26T09:23:59.471Z,783
2023-05-26T09:25:43.160Z,783
2023-05-26T09:27:26.708Z,783
2023-05-26T09:29:10.403Z,783
2023-05-26T09:30:54.258Z,783
2023-05-26T09:32:37.998Z,782
2023-05-26T09:34:21.670Z,782
2023-05-26T09:36:05.410Z,782
2023-05-26T09:37:49.032Z,783
2023-05-26T09:39:32.774Z,782
2023-05-26T09:41:16.484Z,782
2023-05-26T09:43:00.225Z,783
2023-05-26T09:44:43.722Z,782
2023-05-26T09:46:27.426Z,782
2023-05-26T09:48:11.301Z,782
2023-05-26T09:49:55.028Z,782
2023-05-26T09:51:38.600Z,782
2023-05-26T09:53:22.582Z,782
2023-05-26T09:55:05.935Z,782
2023-05-26T09:56:49.841Z,781
2023-05-26T09:58:33.449Z,782
2023-05-26T10:00:17.127Z,782
2023-05-26T10:02:00.999Z,781
2023-05-26T10:03:44.769Z,781
2023-05-26T10:05:28.252Z,782
2023-05-26T10:07:11.864Z,782
2023-05-26T10:08:55.663Z,782
2023-05-26T10:10:39.396Z,781
2023-05-26T10:12:22.937Z,781
2023-05-26T10:14:06.825Z,781
2023-05-26T10:15:50.331Z,781
2023-05-26T10:17:34.053Z,781
2023-05-26T10:19:17.753Z,781
2023-05-26T10:21:01.605Z,781
2023-05-26T10:22:45.304Z,781
2023-05-26T10:24:29.081Z,781
2023-05-26T10:26:12.549Z,782
2023-05-26T10:27:56.439Z,781
2023-05-26T10:29:40.142Z,782
2023-05-26T10:31:23.779Z,782
2023-05-26T10:33:07.539Z,782
2023-05-26T10:34:51.247Z,781
2023-05-26T10:36:34.934Z,782
2023-05-26T10:38:18.677Z,780
2023-05-26T10:40:02.170Z,781
2023-05-26T10:41:46.087Z,781
2023-05-26T10:43:29.744Z,781
2023-05-26T10:45:13.503Z,782
2023-05-26T10:46:57.093Z,781
2023-05-26T10:48:40.710Z,780
2023-05-26T10:50:24.589Z,781
2023-05-26T10:52:08.411Z,781
2023-05-26T10:53:51.929Z,781
2023-05-26T10:55:35.700Z,781
2023-05-26T10:57:19.344Z,781
2023-05-26T10:59:03.011Z,782
2023-05-26T11:00:46.837Z,782
2023-05-26T11:02:30.480Z,781
2023-05-26T11:04:14.030Z,781
2023-05-26T11:05:57.909Z,781
2023-05-26T11:07:41.555Z,782
2023-05-26T11:09:25.262Z,781
2023-05-26T11:11:08.936Z,782
2023-05-26T11:12:52.714Z,781
2023-05-26T11:14:36.377Z,781
2023-05-26T11:16:19.900Z,781
2023-05-26T11:18:03.753Z,780
2023-05-26T11:19:47.524Z,781
2023-05-26T11:21:31.158Z,781
2023-05-26T11:23:14.951Z,780
2023-05-26T11:24:58.580Z,781
2023-05-26T11:26:42.322Z,781
2023-05-26T11:28:25.967Z,780
2023-05-26T11:30:09.526Z,781
2023-05-26T11:31:53.245Z,781
2023-05-26T11:33:37.078Z,781
2023-05-26T11:35:20.800Z,780
2023-05-26T11:37:04.523Z,780
2023-05-26T11:38:48.210Z,778
2023-05-26T11:40:31.845Z,781
2023-05-26T11:42:15.662Z,781
2023-05-26T11:43:59.382Z,780
2023-05-26T11:47:26.666Z,781
2023-05-26T11:49:10.430Z,781
2023-05-26T11:50:54.169Z,781
2023-05-26T11:52:37.883Z,781
2023-05-26T11:54:21.563Z,781
2023-05-26T11:56:05.066Z,781
2023-05-26T11:57:48.956Z,781
2023-05-26T11:59:32.530Z,778
2023-05-26T12:01:16.332Z,781
2023-05-26T12:02:59.994Z,781
2023-05-26T12:04:43.577Z,780
2023-05-26T12:06:27.464Z,778
2023-05-26T12:08:10.968Z,780
2023-05-26T12:09:54.888Z,780
2023-05-26T12:11:38.562Z,781
2023-05-26T12:13:22.221Z,778
2023-05-26T12:15:05.781Z,780
2023-05-26T12:16:49.816Z,781
2023-05-26T12:18:33.367Z,780
2023-05-26T12:20:17.126Z,778
2023-05-26T12:22:00.855Z,780
2023-05-26T12:23:44.305Z,780
2023-05-26T12:25:27.989Z,781
2023-05-26T12:27:11.941Z,779
2023-05-26T12:28:55.617Z,781
2023-05-26T12:30:39.346Z,781
2023-05-26T12:32:23.109Z,781
2023-05-26T12:34:06.699Z,779
2023-05-26T12:35:50.450Z,781
2023-05-26T12:37:34.059Z,781
2023-05-26T12:39:17.852Z,781
2023-05-26T12:41:01.501Z,780
2023-05-26T12:42:45.198Z,780
2023-05-26T12:44:28.957Z,781
2023-05-26T12:46:12.700Z,781
2023-05-26T12:47:56.376Z,781
2023-05-26T12:49:40.102Z,782
2023-05-26T12:51:23.763Z,780
2023-05-26T12:53:07.490Z,780
2023-05-26T12:54:51.211Z,780
2023-05-26T12:56:34.905Z,780
2023-05-26T12:58:18.547Z,780
2023-05-26T13:00:02.122Z,780
2023-05-26T13:01:45.999Z,780
2023-05-26T13:03:29.674Z,781
2023-05-26T13:05:13.223Z,780
2023-05-26T13:06:57.078Z,780
2023-05-26T13:08:40.854Z,781
2023-05-26T13:10:24.531Z,781
2023-05-26T13:12:08.186Z,781
2023-05-26T13:13:51.920Z,781
2023-05-26T13:15:35.596Z,780
2023-05-26T13:17:19.225Z,780
2023-05-26T13:19:03.006Z,781
2023-05-26T13:20:46.708Z,781
2023-05-26T13:22:30.349Z,780
2023-05-26T13:24:14.157Z,779
2023-05-26T13:25:57.855Z,780
2023-05-26T13:27:41.354Z,781
2023-05-26T13:29:25.244Z,780
2023-05-26T13:31:08.742Z,780
2023-05-26T13:32:52.438Z,781
2023-05-26T13:34:36.187Z,781
2023-05-26T13:36:19.936Z,781
2023-05-26T13:38:03.542Z,780
2023-05-26T13:39:47.420Z,780
2023-05-26T13:41:31.104Z,781
2023-05-26T13:43:14.830Z,781
2023-05-26T13:44:58.335Z,780
2023-05-26T13:46:42.050Z,780
2023-05-26T13:48:25.759Z,780
2023-05-26T13:50:09.436Z,780
2023-05-26T13:51:53.207Z,780
2023-05-26T13:53:36.867Z,781
2023-05-26T13:55:20.680Z,780
2023-05-26T13:57:04.500Z,780
2023-05-26T13:58:48.139Z,780
2023-05-26T14:00:31.820Z,780
2023-05-26T14:02:15.355Z,781
2023-05-26T14:03:59.096Z,780
2023-05-26T14:05:42.771Z,780
2023-05-26T14:07:26.468Z,781
2023-05-26T14:09:10.348Z,781
2023-05-26T14:10:53.872Z,781
2023-05-26T14:12:37.689Z,781
2023-05-26T14:14:21.489Z,780
2023-05-26T14:16:05.143Z,780
2023-05-26T14:17:48.688Z,781
2023-05-26T14:19:32.392Z,780
2023-05-26T14:21:28.604Z,781
2023-05-26T14:22:59.998Z,780
2023-05-26T14:24:43.479Z,780
2023-05-26T14:26:27.347Z,781
2023-05-26T14:28:10.891Z,780
2023-05-26T14:29:54.672Z,753
2023-05-26T14:31:38.292Z,703
2023-05-26T14:33:22.078Z,670
2023-05-26T14:35:05.716Z,666
2023-05-26T14:36:49.434Z,733
2023-05-26T14:38:33.093Z,780
2023-05-26T14:40:16.830Z,780
2023-05-26T14:42:00.696Z,780
2023-05-26T14:43:44.281Z,780
2023-05-26T14:45:27.903Z,780
2023-05-26T14:47:11.738Z,780
2023-05-26T14:48:55.487Z,780
2023-05-26T14:50:39.154Z,779
2023-05-26T14:52:22.905Z,780
2023-05-26T14:54:06.622Z,780
2023-05-26T14:55:50.368Z,780
2023-05-26T14:57:33.994Z,779
2023-05-26T14:59:17.781Z,780
2023-05-26T15:01:01.401Z,780
2023-05-26T15:02:45.156Z,780
2023-05-26T15:04:28.754Z,779
2023-05-26T15:06:12.546Z,596
2023-05-26T15:07:56.246Z,620
2023-05-26T15:09:40.012Z,780
2023-05-26T15:11:23.706Z,780
2023-05-26T15:13:07.343Z,681
2023-05-26T15:14:51.074Z,779
2023-05-26T15:16:34.585Z,729
2023-05-26T15:18:18.281Z,780
2023-05-26T15:20:01.966Z,779
2023-05-26T15:21:46.161Z,780
2023-05-26T15:23:29.525Z,780
2023-05-26T15:25:13.391Z,779
2023-05-26T15:26:57.019Z,780
2023-05-26T15:28:40.731Z,780
2023-05-26T15:30:24.167Z,779
2023-05-26T15:32:08.085Z,779
2023-05-26T15:33:51.772Z,780
2023-05-26T15:35:35.493Z,779
2023-05-26T15:37:19.169Z,779
2023-05-26T15:39:02.935Z,780
2023-05-26T15:40:46.840Z,780
2023-05-26T15:42:30.079Z,780
2023-05-26T15:44:13.995Z,780
2023-05-26T15:45:57.538Z,780
2023-05-26T15:47:41.385Z,780
2023-05-26T15:49:25.066Z,779
2023-05-26T15:52:52.501Z,779
2023-05-26T15:54:36.127Z,780
2023-05-26T15:56:19.782Z,780
2023-05-26T15:58:03.433Z,777
2023-05-26T15:59:47.119Z,781
2023-05-26T16:01:30.810Z,779
2023-05-26T16:03:14.686Z,780
2023-05-26T16:04:58.415Z,777
2023-05-26T16:06:42.110Z,779
2023-05-26T16:08:25.807Z,780
2023-05-26T16:10:09.628Z,780
2023-05-26T16:11:53.526Z,778
2023-05-26T16:13:36.924Z,780
2023-05-26T16:15:20.915Z,780
2023-05-26T16:17:04.276Z,779
2023-05-26T16:18:48.105Z,777
2023-05-26T16:20:31.521Z,780
2023-05-26T16:22:15.519Z,779
2023-05-26T16:23:59.165Z,779
2023-05-26T16:25:42.656Z,777
2023-05-26T16:27:26.536Z,780
2023-05-26T16:29:10.242Z,779
2023-05-26T16:30:53.751Z,780
2023-05-26T16:32:37.652Z,779
2023-05-26T16:34:21.396Z,779
2023-05-26T16:36:04.954Z,780
2023-05-26T16:37:48.575Z,779
2023-05-26T16:39:32.319Z,779
2023-05-26T16:41:15.990Z,775
2023-05-26T16:42:59.662Z,749
2023-05-26T16:44:43.561Z,753
2023-05-26T16:46:27.164Z,761
2023-05-26T16:48:10.784Z,742
2023-05-26T16:49:54.479Z,704
2023-05-26T16:51:38.262Z,671
2023-05-26T16:53:21.892Z,642
2023-05-26T16:55:05.649Z,627
2023-05-26T16:56:49.318Z,610
2023-05-26T16:58:33.137Z,600
2023-05-26T17:00:16.696Z,597
2023-05-26T17:02:00.401Z,601
2023-05-26T17:03:44.124Z,612
2023-05-26T17:05:27.800Z,647
2023-05-26T17:07:11.528Z,640
2023-05-26T17:08:55.231Z,596
2023-05-26T17:10:38.920Z,574
2023-05-26T17:12:22.799Z,560
2023-05-26T17:14:06.503Z,554
2023-05-26T17:15:50.071Z,557
2023-05-26T17:19:17.431Z,564
2023-05-26T17:21:00.810Z,532
2023-05-26T17:22:44.507Z,517
2023-05-26T17:24:28.225Z,517
2023-05-26T17:26:12.103Z,536
2023-05-26T17:27:55.627Z,555
2023-05-26T17:29:39.418Z,549
2023-05-26T17:31:23.039Z,569
2023-05-26T17:33:06.730Z,581
2023-05-26T17:34:50.442Z,533
2023-05-26T17:36:34.313Z,487
2023-05-26T17:38:17.849Z,467
2023-05-26T17:40:01.541Z,458
2023-05-26T17:41:45.261Z,448
2023-05-26T17:43:28.952Z,436
2023-05-26T17:45:12.769Z,424
2023-05-26T17:46:56.443Z,418
2023-05-26T17:48:40.219Z,406
2023-05-26T17:50:23.963Z,396
2023-05-26T17:52:07.461Z,386
2023-05-26T17:53:51.290Z,376
2023-05-26T17:55:34.853Z,366
2023-05-26T17:57:18.639Z,357
2023-05-26T17:59:02.477Z,350
2023-05-26T18:00:45.987Z,341
2023-05-26T18:02:29.804Z,332
2023-05-26T18:04:13.381Z,324
2023-05-26T18:05:57.099Z,311
2023-05-26T18:07:40.958Z,300
2023-05-26T18:09:24.688Z,289
2023-05-26T18:11:08.294Z,278
2023-05-26T18:12:52.083Z,270
2023-05-26T18:14:35.717Z,261
2023-05-26T18:16:19.348Z,253
2023-05-26T18:18:03.134Z,247
2023-05-26T18:19:46.691Z,239
2023-05-26T18:21:30.416Z,233
2023-05-26T18:23:14.286Z,227
2023-05-26T18:24:57.861Z,221
2023-05-26T18:26:41.511Z,215
2023-05-26T18:28:25.464Z,209
2023-05-26T18:30:08.919Z,202
2023-05-26T18:31:52.649Z,194
2023-05-26T18:33:36.475Z,188
2023-05-26T18:35:20.131Z,181
2023-05-26T18:37:03.721Z,174
2023-05-26T18:38:47.432Z,168
2023-05-26T18:40:31.112Z,161
2023-05-26T18:42:14.853Z,155
2023-05-26T18:45:42.545Z,139
2023-05-26T18:47:26.104Z,131
2023-05-26T18:49:09.607Z,123
2023-05-26T18:50:53.447Z,115
2023-05-26T18:52:36.999Z,107
2023-05-26T18:54:20.873Z,99
2023-05-26T18:56:04.562Z,91
2023-05-26T18:57:48.129Z,84
2023-05-26T18:59:31.990Z,75
2023-05-26T19:01:15.645Z,67
2023-05-26T19:02:59.219Z,60
2023-05-26T19:04:43.047Z,51
2023-05-26T19:06:26.797Z,44
2023-05-26T19:09:54.187Z,32
2023-05-26T19:11:37.762Z,28
2023-05-26T19:13:21.449Z,25
2023-05-26T19:15:05.127Z,21
2023-05-26T19:16:48.884Z,19
2023-05-26T19:18:32.532Z,16
2023-05-26T19:20:16.357Z,15
2023-05-26T19:22:00.013Z,12
2023-05-26T19:23:43.772Z,11
2023-05-26T19:25:27.386Z,778
2023-05-26T19:27:11.131Z,778
2023-05-26T19:28:54.846Z,778
2023-05-26T19:30:38.621Z,778
2023-05-26T19:32:22.138Z,779
2023-05-26T19:34:06.030Z,778
2023-05-26T19:35:49.776Z,778
2023-05-26T19:37:33.376Z,778
2023-05-26T19:39:17.214Z,779
2023-05-26T19:41:00.801Z,777
2023-05-26T19:42:44.539Z,778
2023-05-26T19:44:28.281Z,778
2023-05-26T19:46:11.762Z,779
2023-05-26T19:47:55.449Z,779
2023-05-26T19:49:39.152Z,778
2023-05-26T19:51:23.167Z,778
2023-05-26T19:53:06.742Z,777
2023-05-26T19:54:50.421Z,778
2023-05-26T19:56:34.022Z,778
2023-05-26T19:58:18.023Z,778
2023-05-26T20:00:01.558Z,777
2023-05-26T20:01:45.045Z,1
2023-05-26T20:03:28.764Z,1
2023-05-26T20:05:12.621Z,1
2023-05-26T20:06:56.167Z,2
2023-05-26T20:08:39.999Z,2
2023-05-26T20:10:23.559Z,1
2023-05-26T20:12:07.304Z,2
2023-05-26T20:13:50.965Z,1
2023-05-26T20:15:34.681Z,2
2023-05-26T20:17:18.518Z,1
2023-05-26T20:19:02.080Z,1
2023-05-26T20:20:45.783Z,2
2023-05-26T20:22:29.572Z,5
2023-05-26T20:24:13.285Z,2
2023-05-26T20:25:56.924Z,2
2023-05-26T20:27:40.797Z,2
2023-05-26T20:29:24.549Z,1
2023-05-26T20:31:08.016Z,2
2023-05-26T20:32:51.721Z,2
2023-05-26T20:34:35.414Z,2
2023-05-26T20:36:19.126Z,2
2023-05-26T20:38:02.820Z,2
2023-05-26T20:39:46.527Z,2
2023-05-26T20:41:30.313Z,2
2023-05-26T20:43:13.941Z,2
2023-05-26T20:44:57.652Z,2
2023-05-26T20:46:41.459Z,1
2023-05-26T20:48:25.155Z,3
2023-05-26T20:50:08.748Z,2
2023-05-26T20:51:52.468Z,3
2023-05-26T20:53:36.221Z,3
2023-05-26T20:57:03.549Z,2
2023-05-26T20:58:47.279Z,1
2023-05-26T21:00:30.974Z,2
2023-05-26T21:02:14.713Z,2
2023-05-26T21:03:58.445Z,2
2023-05-26T21:05:42.386Z,2
2023-05-26T21:07:25.774Z,2
2023-05-26T21:09:09.450Z,2
2023-05-26T21:10:53.167Z,2
2023-05-26T21:12:36.922Z,1
2023-05-26T21:14:20.571Z,2
2023-05-26T21:16:04.299Z,2
2023-05-26T21:17:48.006Z,2
2023-05-26T21:19:31.702Z,2
2023-05-26T21:21:15.458Z,2
2023-05-26T21:22:59.237Z,2
2023-05-26T21:24:42.835Z,3
2023-05-26T21:26:26.631Z,2
2023-05-26T21:28:10.255Z,2
2023-05-26T21:29:54.035Z,2
2023-05-26T21:31:37.745Z,2
2023-05-26T21:33:21.470Z,1
2023-05-26T21:35:05.033Z,2
2023-05-26T21:36:48.724Z,2
2023-05-26T21:38:32.431Z,2
2023-05-26T21:40:16.122Z,2
2023-05-26T21:41:59.947Z,2
2023-05-26T21:43:43.531Z,77
2023-05-26T21:45:27.424Z,78
2023-05-26T21:47:10.953Z,76
2023-05-26T21:48:54.801Z,76
2023-05-26T21:50:38.342Z,78
2023-05-26T21:52:22.182Z,1
2023-05-26T21:54:05.767Z,2
2023-05-26T21:55:49.800Z,2
2023-05-26T21:57:33.324Z,3
2023-05-26T21:59:16.868Z,2
2023-05-26T22:01:00.584Z,3
2023-05-26T22:02:44.413Z,1
2023-05-26T22:04:28.005Z,2
2023-05-26T22:06:11.689Z,2
2023-05-26T22:07:55.482Z,2
2023-05-26T22:09:39.106Z,2
2023-05-26T22:11:22.928Z,2
2023-05-26T22:13:06.498Z,2
2023-05-26T22:14:50.248Z,2
2023-05-26T22:16:33.991Z,3
2023-05-26T22:18:17.623Z,2
2023-05-26T22:20:01.307Z,2
2023-05-26T22:21:45.008Z,2
2023-05-26T22:23:28.705Z,2
2023-05-26T22:25:12.429Z,2
2023-05-26T22:26:56.163Z,3
2023-05-26T22:28:39.953Z,2
2023-05-26T22:30:23.612Z,2
2023-05-26T22:32:07.279Z,72
2023-05-26T22:33:50.958Z,1
2023-05-26T22:35:34.648Z,0
2023-05-26T22:37:18.438Z,1
2023-05-26T22:39:02.135Z,1
2023-05-26T22:40:45.772Z,0
2023-05-26T22:42:29.593Z,1
2023-05-26T22:44:13.209Z,1
2023-05-26T22:45:56.962Z,1
2023-05-26T22:47:40.723Z,0
2023-05-26T22:49:24.318Z,1
2023-05-26T22:51:08.134Z,1
2023-05-26T22:52:51.789Z,0
2023-05-26T22:54:35.366Z,1
2023-05-26T22:56:19.124Z,0
2023-05-26T22:58:02.850Z,1
2023-05-26T22:59:46.480Z,0
2023-05-26T23:01:30.263Z,0
2023-05-26T23:03:13.979Z,1
2023-05-26T23:04:57.669Z,0
2023-05-26T23:06:41.431Z,1
2023-05-26T23:08:25.128Z,0
2023-05-26T23:10:08.693Z,0
2023-05-26T23:11:52.462Z,1
2023-05-26T23:13:36.090Z,1
2023-05-26T23:15:19.963Z,0
2023-05-26T23:17:03.649Z,0
2023-05-26T23:18:47.190Z,0
2023-05-26T23:20:30.917Z,0
2023-05-26T23:22:14.864Z,1
2023-05-26T23:23:58.363Z,0
2023-05-26T23:25:42.017Z,1
2023-05-26T23:27:25.891Z,1
2023-05-26T23:29:09.605Z,1
2023-05-26T23:30:53.142Z,0
2023-05-26T23:32:36.987Z,1
2023-05-26T23:34:20.605Z,0
2023-05-26T23:36:04.304Z,1
2023-05-26T23:37:48.141Z,1
2023-05-26T23:39:31.817Z,1
2023-05-26T23:41:15.356Z,1
2023-05-26T23:42:59.144Z,1
2023-05-26T23:44:42.922Z,0
2023-05-26T23:46:26.482Z,1
2023-05-26T23:48:10.316Z,1
2023-05-26T23:49:53.987Z,0
2023-05-26T23:51:37.673Z,1
2023-05-26T23:53:21.295Z,0
2023-05-26T23:55:04.996Z,1
2023-05-26T23:56:48.764Z,0
2023-05-26T23:58:32.391Z,0
